Time;durP1;ratioP1;P1;durP2;ratioP2;P2;SDS_P1;SDS_P2;PMS_P1;PMS_P2;Temp;Humidity;BMP_temperature;BMP_pressure;BME280_temperature;BME280_humidity;BME280_pressure;Samples;Min_cycle;Max_cycle;Signal;HPM_P1;HPM_P2
2023/12/14 00:01:29;;;;;;;1.60;1.50;;;;;;;20.60;49.39;96289.25;4922043;29;20210;-25
2023/12/14 00:03:55;;;;;;;1.60;1.50;;;;;;;20.60;49.29;96287.53;4920941;29;20283;-25
2023/12/14 00:06:22;;;;;;;1.70;1.60;;;;;;;20.60;49.13;96295.19;4927980;29;20211;-25
2023/12/14 00:08:49;;;;;;;1.53;1.43;;;;;;;20.59;49.21;96285.81;4924834;29;20248;-25
2023/12/14 00:11:16;;;;;;;1.77;1.67;;;;;;;20.60;49.13;96292.63;4923713;29;20212;-25
2023/12/14 00:13:42;;;;;;;1.80;1.70;;;;;;;20.61;49.27;96294.38;4933638;29;20204;-25
2023/12/14 00:16:09;;;;;;;1.70;1.60;;;;;;;20.61;49.13;96293.50;4920215;29;20299;-25
2023/12/14 00:18:36;;;;;;;1.67;1.57;;;;;;;19.94;49.05;96185.41;4920867;29;20702;-25
2023/12/14 00:21:03;;;;;;;1.53;1.43;;;;;;;20.61;49.24;96299.47;4928087;29;20216;-25
2023/12/14 00:23:29;;;;;;;1.70;1.60;;;;;;;20.60;48.94;96299.47;4928593;29;20296;-25
2023/12/14 00:25:56;;;;;;;1.50;1.40;;;;;;;20.62;49.11;96296.06;4919277;29;20312;-25
2023/12/14 00:28:23;;;;;;;2.00;1.80;;;;;;;20.61;49.42;96299.47;4922696;29;20213;-25
2023/12/14 00:30:53;;;;;;;1.60;1.50;;;;;;;20.61;49.08;96301.16;4930001;29;20319;-25
2023/12/14 00:33:20;;;;;;;1.60;1.50;;;;;;;20.62;49.34;96313.94;4933131;29;20234;-25
2023/12/14 00:35:47;;;;;;;1.63;1.53;;;;;;;20.62;49.08;96316.50;4929681;29;20640;-25
2023/12/14 00:38:14;;;;;;;1.77;1.67;;;;;;;20.63;49.22;96328.41;4922219;29;20266;-26
2023/12/14 00:40:40;;;;;;;1.50;1.40;;;;;;;20.62;49.23;96329.25;4941138;23;20237;-26
2023/12/14 00:43:07;;;;;;;1.50;1.40;;;;;;;20.62;49.27;96333.50;4931817;29;20232;-28
2023/12/14 00:45:34;;;;;;;1.60;1.50;;;;;;;20.62;49.28;96330.94;4926851;29;20230;-26
2023/12/14 00:48:00;;;;;;;2.97;1.80;;;;;;;20.54;49.16;96335.94;4923656;29;20229;-28
2023/12/14 00:50:27;;;;;;;1.73;1.63;;;;;;;20.61;49.23;96342.88;4936915;29;20233;-26
2023/12/14 00:52:53;;;;;;;1.57;1.47;;;;;;;20.61;49.06;96353.09;4922173;29;20233;-35
2023/12/14 00:55:20;;;;;;;1.50;1.40;;;;;;;20.55;49.31;96357.22;4926108;29;20217;-26
2023/12/14 00:57:47;;;;;;;1.80;1.70;;;;;;;20.51;49.29;96358.88;4922658;29;20834;-26
2023/12/14 01:00:14;;;;;;;1.60;1.50;;;;;;;20.48;49.62;96351.16;4920865;29;20233;-26
2023/12/14 01:02:40;;;;;;;1.60;1.50;;;;;;;20.47;49.53;96363.91;4917979;29;20260;-26
2023/12/14 01:05:07;;;;;;;1.70;1.60;;;;;;;20.46;49.63;96360.47;4921534;29;20225;-26
2023/12/14 01:07:34;;;;;;;1.70;1.60;;;;;;;20.50;49.53;96371.59;4924907;29;20304;-28
2023/12/14 01:10:00;;;;;;;1.77;1.67;;;;;;;20.51;49.12;96374.19;4920510;29;20229;-27
2023/12/14 01:12:27;;;;;;;1.70;1.60;;;;;;;20.50;49.53;96369.06;4920831;29;20264;-26
2023/12/14 01:14:54;;;;;;;1.70;1.60;;;;;;;20.51;49.58;96379.28;4922947;29;20205;-26
2023/12/14 01:17:20;;;;;;;1.70;1.60;;;;;;;20.52;49.60;96375.88;4928308;29;20205;-38
2023/12/14 01:19:47;;;;;;;1.80;1.70;;;;;;;20.52;49.40;96380.16;4917577;29;20320;-28
2023/12/14 01:22:13;;;;;;;1.60;1.50;;;;;;;20.51;49.56;96381.84;4917458;29;20555;-26
2023/12/14 01:24:42;;;;;;;1.60;1.50;;;;;;;20.53;49.37;96382.72;4920824;29;20221;-26
2023/12/14 01:27:10;;;;;;;1.60;1.50;;;;;;;20.53;49.43;96387.84;4923347;29;20241;-26
2023/12/14 01:29:37;;;;;;;1.50;1.40;;;;;;;20.54;49.58;96391.25;4916835;29;20229;-29
2023/12/14 01:32:04;;;;;;;1.60;1.50;;;;;;;20.53;49.37;96402.28;4917361;29;20621;-26
2023/12/14 01:34:30;;;;;;;1.63;1.53;;;;;;;20.54;49.39;96409.94;4917327;29;20231;-27
2023/12/14 01:36:57;;;;;;;1.40;1.30;;;;;;;20.54;49.33;96415.06;4917382;29;20249;-26
2023/12/14 01:39:23;;;;;;;1.60;1.50;;;;;;;20.55;49.36;96418.47;4921485;29;20225;-27
2023/12/14 01:41:50;;;;;;;1.80;1.70;;;;;;;20.56;49.35;96417.63;4918721;29;20292;-35
2023/12/14 01:44:17;;;;;;;1.60;1.50;;;;;;;20.56;49.49;96422.75;4920962;29;20237;-26
2023/12/14 01:46:43;;;;;;;1.80;1.70;;;;;;;20.56;49.49;96427.84;4918106;29;20264;-26
2023/12/14 01:49:10;;;;;;;1.70;1.60;;;;;;;20.55;49.31;96427.00;4925210;29;20269;-28
2023/12/14 01:51:36;;;;;;;1.70;1.60;;;;;;;20.56;49.26;96430.41;4925741;29;20269;-26
2023/12/14 01:54:03;;;;;;;1.60;1.50;;;;;;;20.56;49.35;96435.50;4917537;29;20293;-26
2023/12/14 01:56:29;;;;;;;1.50;1.40;;;;;;;20.57;49.24;96434.69;4929729;29;20627;-26
2023/12/14 01:58:56;;;;;;;1.90;1.70;;;;;;;20.53;49.36;96443.97;4913781;29;20788;-26
2023/12/14 02:01:36;;;;;;;1.50;1.40;;;;;;;20.49;49.46;96443.91;4927294;29;20267;-26
2023/12/14 02:04:03;;;;;;;1.53;1.43;;;;;;;20.28;49.54;96421.44;4918037;29;20425;-26
2023/12/14 02:06:29;;;;;;;1.57;1.47;;;;;;;20.44;49.41;96448.06;4918957;29;20509;-26
2023/12/14 02:08:56;;;;;;;1.63;1.53;;;;;;;20.43;49.63;96454.00;4916575;29;20233;-26
2023/12/14 02:11:22;;;;;;;1.80;1.50;;;;;;;20.41;49.20;96448.88;4918194;29;20584;-35
2023/12/14 02:13:49;;;;;;;1.60;1.50;;;;;;;20.47;49.82;96458.31;4916991;29;20210;-28
2023/12/14 02:16:16;;;;;;;1.50;1.40;;;;;;;20.48;50.09;96466.00;4925249;29;20599;-26
2023/12/14 02:18:43;;;;;;;1.60;1.50;;;;;;;20.49;49.43;96466.88;4917391;29;20210;-26
2023/12/14 02:21:10;;;;;;;1.57;1.47;;;;;;;20.49;49.34;96462.59;4922547;29;20217;-26
2023/12/14 02:23:46;;;;;;;1.60;1.50;;;;;;;20.49;49.72;96464.31;4921143;29;20241;-31
2023/12/14 02:26:13;;;;;;;2.00;1.80;;;;;;;20.50;49.55;96469.44;4922622;29;20296;-30
2023/12/14 02:28:39;;;;;;;1.67;1.57;;;;;;;20.51;49.64;96473.72;4921488;29;20229;-28
2023/12/14 02:31:06;;;;;;;1.60;1.50;;;;;;;20.50;49.36;96472.00;4927333;29;20225;-26
2023/12/14 02:33:33;;;;;;;1.60;1.50;;;;;;;20.52;49.16;96483.06;4902201;29;20197;-26
2023/12/14 02:35:59;;;;;;;1.50;1.40;;;;;;;20.52;49.26;96483.06;4917574;29;20210;-28
2023/12/14 02:38:26;;;;;;;1.70;1.60;;;;;;;20.52;49.33;96487.34;4917347;29;20209;-28
2023/12/14 02:40:53;;;;;;;1.43;1.30;;;;;;;20.54;49.48;96485.69;4922121;29;20316;-26
2023/12/14 02:43:19;;;;;;;1.83;1.73;;;;;;;20.53;49.55;96486.50;4919646;29;20456;-26
2023/12/14 02:45:46;;;;;;;1.53;1.43;;;;;;;20.54;49.75;96489.06;4918340;29;20253;-27
2023/12/14 02:48:12;;;;;;;1.60;1.50;;;;;;;20.55;49.55;96502.72;4916318;29;20236;-27
2023/12/14 02:50:39;;;;;;;1.50;1.40;;;;;;;20.55;49.33;96507.81;4916660;29;20237;-26
2023/12/14 02:53:06;;;;;;;1.70;1.40;;;;;;;20.56;49.51;96504.41;4929773;29;20716;-26
2023/12/14 02:55:32;;;;;;;1.83;1.63;;;;;;;20.53;49.68;96515.44;4917013;29;20209;-26
2023/12/14 02:57:59;;;;;;;1.53;1.43;;;;;;;20.49;49.43;96510.25;4916467;29;20677;-26
2023/12/14 03:00:25;;;;;;;1.57;1.47;;;;;;;20.46;49.82;96512.75;4916514;29;20605;-26
2023/12/14 03:02:52;;;;;;;1.70;1.60;;;;;;;20.43;49.47;96511.00;4916472;29;20354;-26
2023/12/14 03:05:19;;;;;;;1.67;1.57;;;;;;;20.43;49.51;96515.25;4917071;29;20206;-29
2023/12/14 03:07:45;;;;;;;1.50;1.40;;;;;;;20.44;49.50;96529.72;4923319;29;20235;-26
2023/12/14 03:10:12;;;;;;;1.53;1.43;;;;;;;20.46;49.67;96525.53;4920709;29;20233;-26
2023/12/14 03:12:38;;;;;;;1.60;1.50;;;;;;;20.47;49.51;96528.09;4926776;29;20245;-26
2023/12/14 03:15:05;;;;;;;1.60;1.50;;;;;;;20.48;49.70;96534.03;4916857;29;20206;-27
2023/12/14 03:17:32;;;;;;;1.70;1.60;;;;;;;20.48;49.65;96540.00;4924263;29;20209;-27
2023/12/14 03:19:59;;;;;;;1.53;1.43;;;;;;;20.49;49.58;96531.50;4919524;29;20229;-29
2023/12/14 03:22:25;;;;;;;1.50;1.40;;;;;;;20.51;49.58;96539.19;4929681;29;20208;-27
2023/12/14 03:24:52;;;;;;;1.50;1.40;;;;;;;20.50;49.60;96542.59;4915307;29;20309;-27
2023/12/14 03:27:19;;;;;;;1.63;1.53;;;;;;;20.50;49.54;96551.13;4923826;29;20591;-26
2023/12/14 03:29:46;;;;;;;1.63;1.53;;;;;;;20.50;49.53;96548.56;4926281;29;20634;-26
2023/12/14 03:32:13;;;;;;;1.50;1.40;;;;;;;20.51;49.49;96547.72;4923886;29;20274;-26
2023/12/14 03:34:40;;;;;;;1.50;1.40;;;;;;;20.51;49.47;96557.06;4923109;29;20205;-31
2023/12/14 03:37:07;;;;;;;1.37;1.27;;;;;;;20.52;49.19;96562.19;4915706;29;20213;-31
2023/12/14 03:39:33;;;;;;;1.67;1.57;;;;;;;20.53;49.17;96563.94;4915739;29;20271;-26
2023/12/14 03:42:00;;;;;;;1.53;1.43;;;;;;;20.53;49.36;96570.72;4922735;29;20209;-30
2023/12/14 03:44:27;;;;;;;1.50;1.40;;;;;;;20.53;49.28;96576.69;4919072;29;20205;-26
2023/12/14 03:46:54;;;;;;;1.50;1.40;;;;;;;20.53;49.37;96583.47;4919837;29;20586;-26
2023/12/14 03:49:21;;;;;;;1.67;1.57;;;;;;;20.51;49.46;96586.00;4924734;29;20766;-26
2023/12/14 03:51:47;;;;;;;1.40;1.30;;;;;;;20.47;49.52;96591.03;4929783;29;20216;-26
2023/12/14 03:54:14;;;;;;;1.70;1.60;;;;;;;20.44;49.29;96593.53;4918446;29;20216;-27
2023/12/14 03:56:40;;;;;;;1.73;1.63;;;;;;;20.44;49.50;96596.94;4915912;29;20366;-28
2023/12/14 03:59:07;;;;;;;1.50;1.40;;;;;;;20.42;49.64;96593.50;4915964;29;20216;-27
2023/12/14 04:01:33;;;;;;;1.73;1.63;;;;;;;20.44;49.52;96599.50;4917356;29;20205;-31
2023/12/14 04:04:00;;;;;;;1.43;1.33;;;;;;;20.46;49.53;96602.09;4915573;29;20583;-26
2023/12/14 04:06:27;;;;;;;1.67;1.57;;;;;;;20.47;49.65;96607.22;4916890;29;20240;-29
2023/12/14 04:08:54;;;;;;;1.50;1.40;;;;;;;20.46;49.59;96615.69;4915419;29;20257;-27
2023/12/14 04:11:21;;;;;;;1.50;1.40;;;;;;;20.46;49.52;96620.78;4915742;29;20268;-26
2023/12/14 04:13:50;;;;;;;1.60;1.50;;;;;;;20.46;49.62;96618.22;4913278;29;20669;-29
2023/12/14 04:16:20;;;;;;;1.67;1.57;;;;;;;20.47;49.70;96629.31;4919122;29;20205;-26
2023/12/14 04:18:50;;;;;;;1.57;1.47;;;;;;;20.48;49.56;96637.00;4909596;29;20296;-28
2023/12/14 04:21:17;;;;;;;1.67;1.57;;;;;;;20.47;49.50;96639.53;4922534;29;20222;-26
2023/12/14 04:23:45;;;;;;;1.77;1.50;;;;;;;20.49;49.64;96638.72;4919264;29;20198;-26
2023/12/14 04:26:13;;;;;;;1.80;1.70;;;;;;;20.48;49.24;96642.09;4919436;29;20208;-28
2023/12/14 04:28:43;;;;;;;1.63;1.53;;;;;;;20.49;49.51;96640.41;4916680;29;20627;-26
2023/12/14 04:31:11;;;;;;;1.50;1.40;;;;;;;20.49;49.49;96645.53;4915168;29;20222;-26
2023/12/14 04:33:37;;;;;;;1.93;1.77;;;;;;;20.49;49.60;96646.38;4926725;29;20262;-30
2023/12/14 04:36:04;;;;;;;1.50;1.40;;;;;;;20.49;49.51;96650.63;4919094;29;20264;-30
2023/12/14 04:38:31;;;;;;;1.63;1.53;;;;;;;20.49;49.72;96659.13;4917544;29;20730;-30
2023/12/14 04:40:57;;;;;;;1.80;1.70;;;;;;;20.48;49.73;96657.41;4917792;29;20261;-26
2023/12/14 04:43:24;;;;;;;1.60;1.50;;;;;;;20.46;49.62;96664.16;4925231;29;20202;-26
2023/12/14 04:45:50;;;;;;;1.77;1.67;;;;;;;20.41;49.32;96663.25;4924613;29;20760;-29
2023/12/14 04:48:17;;;;;;;1.50;1.40;;;;;;;20.40;49.74;96669.16;4918082;29;20277;-27
2023/12/14 04:50:43;;;;;;;1.60;1.50;;;;;;;20.41;49.54;96682.78;4918226;29;20705;-28
2023/12/14 04:53:10;;;;;;;1.50;1.40;;;;;;;20.41;49.73;96683.66;4918845;29;20728;-26
2023/12/14 04:55:37;;;;;;;1.60;1.50;;;;;;;20.43;49.78;96689.63;4917927;29;20206;-26
2023/12/14 04:58:03;;;;;;;1.80;1.70;;;;;;;20.44;49.50;96685.41;4913537;29;20212;-26
2023/12/14 05:00:30;;;;;;;1.60;1.50;;;;;;;20.43;49.55;96679.41;4922264;29;20214;-26
2023/12/14 05:02:57;;;;;;;1.50;1.40;;;;;;;20.44;49.64;96688.81;4921069;29;20206;-26
2023/12/14 05:05:23;;;;;;;1.63;1.53;;;;;;;20.46;49.62;96702.44;4922127;29;20206;-28
2023/12/14 05:07:50;;;;;;;1.80;1.70;;;;;;;20.45;49.73;96697.31;4918997;29;20201;-27
2023/12/14 05:10:17;;;;;;;1.57;1.47;;;;;;;20.44;49.75;96703.25;4918618;29;20667;-26
2023/12/14 05:12:43;;;;;;;1.57;1.47;;;;;;;20.45;49.51;96707.53;4919527;29;20206;-26
2023/12/14 05:15:11;;;;;;;1.63;1.53;;;;;;;20.46;49.71;96709.28;4921577;29;20289;-26
2023/12/14 05:17:37;;;;;;;1.90;1.80;;;;;;;20.46;49.78;96710.09;4905999;29;20280;-29
2023/12/14 05:20:05;;;;;;;1.90;1.80;;;;;;;20.47;49.74;96708.44;4910625;29;20229;-31
2023/12/14 05:22:32;;;;;;;1.40;1.30;;;;;;;20.46;49.51;96712.66;4895369;29;20209;-27
2023/12/14 05:24:59;;;;;;;1.90;1.80;;;;;;;20.47;49.69;96722.06;4909826;29;20217;-28
2023/12/14 05:27:26;;;;;;;1.70;1.60;;;;;;;20.48;49.67;96725.44;4909956;29;20217;-26
2023/12/14 05:29:52;;;;;;;1.50;1.40;;;;;;;20.47;49.56;96727.16;4908580;29;20253;-31
2023/12/14 05:32:19;;;;;;;1.70;1.60;;;;;;;20.48;49.65;96735.66;4907799;29;21088;-27
2023/12/14 05:34:45;;;;;;;2.23;1.70;;;;;;;20.44;49.77;96739.88;4909417;29;20209;-28
2023/12/14 05:37:12;;;;;;;1.53;1.43;;;;;;;20.41;49.63;96747.47;4909605;29;20209;-30
2023/12/14 05:39:41;;;;;;;1.60;1.50;;;;;;;20.40;49.77;96752.53;4909261;29;20743;-31
2023/12/14 05:42:08;;;;;;;1.70;1.60;;;;;;;20.39;49.90;96751.66;4910325;29;20209;-27
2023/12/14 05:44:35;;;;;;;1.70;1.60;;;;;;;20.39;49.77;96751.66;4910115;29;20242;-29
2023/12/14 05:47:02;;;;;;;1.83;1.67;;;;;;;20.38;49.57;96752.50;4910086;29;20214;-28
2023/12/14 05:49:28;;;;;;;1.90;1.80;;;;;;;20.43;50.03;96758.53;4908203;29;20230;-35
2023/12/14 05:51:55;;;;;;;1.70;1.60;;;;;;;20.44;49.98;96761.97;4908225;29;20229;-30
2023/12/14 05:54:22;;;;;;;1.60;1.50;;;;;;;20.45;50.04;96767.09;4909039;29;20963;-27
2023/12/14 05:56:48;;;;;;;1.70;1.60;;;;;;;20.44;49.75;96775.59;4909629;29;20238;-39
2023/12/14 05:59:15;;;;;;;1.50;1.40;;;;;;;20.42;49.64;96771.25;4908610;29;20206;-31
2023/12/14 06:01:43;;;;;;;1.60;1.50;;;;;;;20.44;49.93;96785.81;4907769;29;20206;-41
2023/12/14 06:04:09;;;;;;;1.60;1.50;;;;;;;20.46;49.87;96786.69;4908196;29;20208;-40
2023/12/14 06:06:39;;;;;;;4.80;2.10;;;;;;;20.45;49.47;96794.31;4907699;29;20755;-30
2023/12/14 06:09:07;;;;;;;2.20;2.00;;;;;;;20.47;49.09;96800.31;4911555;29;20232;-27
2023/12/14 06:11:33;;;;;;;2.70;2.50;;;;;;;20.48;48.38;96804.56;4918549;29;20583;-29
2023/12/14 06:14:00;;;;;;;3.87;3.40;;;;;;;20.49;47.78;96803.78;4920141;29;20214;-27
2023/12/14 06:16:27;;;;;;;3.63;3.20;;;;;;;20.48;47.25;96809.69;4922505;29;20673;-26
2023/12/14 06:18:54;;;;;;;4.20;3.73;;;;;;;20.50;46.56;96820.78;4922270;29;20210;-26
2023/12/14 06:21:20;;;;;;;4.30;3.90;;;;;;;20.41;45.73;96811.25;4925425;29;20217;-28
2023/12/14 06:23:47;;;;;;;5.07;4.43;;;;;;;20.44;46.18;96825.75;4918506;29;20717;-27
2023/12/14 06:26:17;;;;;;;4.63;4.23;;;;;;;20.46;46.95;96831.78;4923757;29;20312;-27
2023/12/14 06:28:44;;;;;;;4.37;3.80;;;;;;;20.46;47.30;96840.28;4926919;29;20239;-26
2023/12/14 06:31:14;;;;;;;3.67;3.37;;;;;;;20.44;47.92;96838.53;4924624;29;20234;-26
2023/12/14 06:33:41;;;;;;;3.80;3.50;;;;;;;20.41;48.04;96846.09;4916712;29;20209;-26
2023/12/14 06:36:08;;;;;;;5.03;3.67;;;;;;;20.40;48.19;96852.06;4915873;29;20214;-26
2023/12/14 06:38:36;;;;;;;4.73;3.40;;;;;;;20.39;48.50;96855.41;4916890;29;20622;-26
2023/12/14 06:41:02;;;;;;;3.43;3.20;;;;;;;20.40;48.64;96859.72;4899631;29;20673;-26
2023/12/14 06:43:29;;;;;;;3.50;3.20;;;;;;;20.42;48.46;96870.78;4917940;29;20202;-27
2023/12/14 06:45:56;;;;;;;5.60;5.10;;;;;;;20.50;46.14;96874.41;4917351;29;20264;-26
2023/12/14 06:48:22;;;;;;;5.40;4.90;;;;;;;20.48;46.51;96876.03;4927692;29;20201;-30
2023/12/14 06:50:49;;;;;;;5.90;5.33;;;;;;;20.47;47.06;96879.44;4926171;29;20636;-26
2023/12/14 06:53:15;;;;;;;4.63;4.30;;;;;;;20.45;47.22;96886.19;4923802;29;20205;-27
2023/12/14 06:55:42;;;;;;;4.80;4.30;;;;;;;20.45;47.68;96889.59;4932042;29;20205;-27
2023/12/14 06:58:11;;;;;;;5.03;4.10;;;;;;;20.46;47.94;96893.88;4923602;29;20198;-28
2023/12/14 07:00:38;;;;;;;4.10;3.70;;;;;;;20.42;47.95;96889.53;4929509;29;20225;-28
2023/12/14 07:03:13;;;;;;;4.30;3.90;;;;;;;20.41;48.24;96895.47;5049410;28;20563;-28
2023/12/14 07:05:41;;;;;;;4.20;3.43;;;;;;;20.40;48.33;96908.19;5049337;28;20232;-27
2023/12/14 07:08:08;;;;;;;4.43;3.87;;;;;;;20.39;48.55;96909.00;5048750;28;20201;-29
2023/12/14 07:10:35;;;;;;;3.97;3.63;;;;;;;20.37;48.56;96911.53;5035853;28;20229;-29
2023/12/14 07:13:01;;;;;;;3.77;3.47;;;;;;;20.39;48.61;96921.75;5028695;28;20233;-28
2023/12/14 07:15:28;;;;;;;3.77;3.20;;;;;;;20.40;48.78;96931.16;5029162;28;20259;-28
2023/12/14 07:17:54;;;;;;;4.37;3.47;;;;;;;20.41;48.88;96923.53;5028470;28;20225;-28
2023/12/14 07:20:21;;;;;;;3.93;3.53;;;;;;;20.41;48.65;96933.75;5024630;28;20225;-28
2023/12/14 07:22:48;;;;;;;3.50;3.20;;;;;;;20.41;48.85;96938.84;5028854;28;20234;-29
2023/12/14 07:25:15;;;;;;;3.37;3.07;;;;;;;20.42;48.85;96942.25;5028947;28;20206;-29
2023/12/14 07:27:42;;;;;;;5.03;3.27;;;;;;;20.41;48.88;96949.06;5029080;28;20213;-28
2023/12/14 07:30:10;;;;;;;3.20;2.90;;;;;;;20.42;48.94;96952.47;5028975;28;20355;-31
2023/12/14 07:32:36;;;;;;;3.60;3.30;;;;;;;20.43;49.03;96959.31;5028749;28;20202;-28
2023/12/14 07:35:04;;;;;;;2.93;2.70;;;;;;;20.41;49.01;96960.97;5029023;28;20213;-31
2023/12/14 07:37:31;;;;;;;3.10;2.80;;;;;;;20.38;49.08;96956.66;5028655;28;20248;-28
2023/12/14 07:40:00;;;;;;;3.37;3.00;;;;;;;20.32;49.11;96948.84;5028774;28;20221;-27
2023/12/14 07:42:27;;;;;;;3.50;2.80;;;;;;;20.38;49.20;96965.97;5028791;28;20256;-28
2023/12/14 07:44:54;;;;;;;3.23;2.93;;;;;;;20.37;49.00;96954.91;5028799;28;20280;-28
2023/12/14 07:47:20;;;;;;;5.33;3.00;;;;;;;20.39;49.05;96953.25;5028766;28;20252;-28
2023/12/14 07:49:47;;;;;;;3.33;2.93;;;;;;;20.41;49.18;96966.06;5027898;28;20222;-28
2023/12/14 07:52:14;;;;;;;3.10;2.60;;;;;;;20.39;49.21;96973.69;5028793;28;20699;-30
2023/12/14 07:54:40;;;;;;;4.70;2.90;;;;;;;20.40;49.29;96972.84;5028590;28;20625;-27
2023/12/14 07:57:07;;;;;;;5.30;2.90;;;;;;;20.41;49.08;96981.38;5028887;28;20212;-28
2023/12/14 07:59:34;;;;;;;2.97;2.67;;;;;;;20.41;49.27;96987.34;5028378;28;20237;-28
2023/12/14 08:02:00;;;;;;;3.17;2.70;;;;;;;20.41;49.36;96987.34;5019817;28;20228;-32
2023/12/14 08:04:27;;;;;;;3.03;2.73;;;;;;;20.42;49.32;97000.94;5028653;28;20244;-29
2023/12/14 08:06:54;;;;;;;4.27;2.73;;;;;;;20.41;49.30;97002.66;5028324;28;20205;-28
2023/12/14 08:09:20;;;;;;;2.93;2.40;;;;;;;20.41;49.30;97007.78;5027951;28;20236;-27
2023/12/14 08:11:47;;;;;;;3.57;2.70;;;;;;;20.39;49.33;97006.84;5027870;28;20694;-29
2023/12/14 08:14:13;;;;;;;3.20;2.37;;;;;;;20.38;49.38;97012.78;5016951;28;20211;-28
2023/12/14 08:16:40;;;;;;;2.90;2.57;;;;;;;20.35;49.45;97010.16;5014398;28;20472;-28
2023/12/14 08:19:06;;;;;;;2.87;2.67;;;;;;;20.38;49.30;97017.91;5014666;28;20740;-28
2023/12/14 08:21:33;;;;;;;3.13;2.53;;;;;;;20.38;49.59;97025.56;5015236;28;20222;-29
2023/12/14 08:24:00;;;;;;;4.27;2.90;;;;;;;20.37;49.67;97018.69;5014778;28;20276;-27
2023/12/14 08:26:26;;;;;;;3.10;2.80;;;;;;;20.39;49.60;97034.94;5014656;28;20265;-29
2023/12/14 08:28:53;;;;;;;4.27;2.97;;;;;;;20.39;49.69;97039.16;5014331;28;20218;-28
2023/12/14 08:31:20;;;;;;;3.70;2.77;;;;;;;20.40;49.63;97046.84;5014365;28;20229;-29
2023/12/14 08:33:46;;;;;;;3.63;2.70;;;;;;;20.40;49.56;97044.31;5014288;28;20210;-27
2023/12/14 08:36:16;;;;;;;3.87;2.93;;;;;;;20.40;49.45;97054.50;5014591;28;20692;-28
2023/12/14 08:38:43;;;;;;;3.03;2.70;;;;;;;20.40;49.50;97058.78;5014449;28;20638;-28
2023/12/14 08:41:16;;;;;;;2.70;2.50;;;;;;;20.40;49.42;97066.44;5014408;28;20321;-28
2023/12/14 08:43:43;;;;;;;3.47;2.00;;;;;;;20.41;49.44;97069.03;5014260;28;20206;-28
2023/12/14 08:46:10;;;;;;;3.10;2.60;;;;;;;20.41;49.58;97076.69;5014137;28;20221;-27
2023/12/14 08:48:37;;;;;;;2.60;2.20;;;;;;;20.38;49.47;97071.50;5019673;28;20233;-30
2023/12/14 08:51:04;;;;;;;2.40;2.17;;;;;;;20.36;49.66;97069.69;5013831;28;20234;-28
2023/12/14 08:53:31;;;;;;;2.70;2.20;;;;;;;20.37;49.52;97077.41;5014262;28;20198;-28
2023/12/14 08:55:57;;;;;;;2.63;2.40;;;;;;;20.37;49.84;97087.59;5013522;28;20211;-27
2023/12/14 08:58:24;;;;;;;2.83;2.53;;;;;;;20.38;49.61;97081.69;5014537;28;20297;-28
2023/12/14 09:00:52;;;;;;;5.03;2.47;;;;;;;20.39;49.71;97077.44;5013885;28;20230;-30
2023/12/14 09:03:19;;;;;;;4.47;2.60;;;;;;;20.40;49.65;97092.78;5014156;28;20218;-29
2023/12/14 09:05:46;;;;;;;3.27;2.50;;;;;;;20.40;49.73;97090.25;5013726;28;20294;-28
2023/12/14 09:08:13;;;;;;;3.37;2.50;;;;;;;20.39;49.67;97101.28;5021120;28;20681;-28
2023/12/14 09:10:39;;;;;;;3.07;2.20;;;;;;;20.41;49.75;97106.44;5014161;28;20225;-29
2023/12/14 09:13:06;;;;;;;4.10;2.60;;;;;;;20.40;49.74;97102.16;5013614;28;20637;-28
2023/12/14 09:15:33;;;;;;;3.43;2.33;;;;;;;20.39;49.66;97101.28;5014156;28;20207;-28
2023/12/14 09:18:00;;;;;;;4.47;2.60;;;;;;;20.39;49.75;97119.16;5013407;28;20563;-30
2023/12/14 09:20:27;;;;;;;2.97;2.50;;;;;;;20.42;49.57;97131.13;5013730;28;20222;-28
2023/12/14 09:22:53;;;;;;;2.87;2.20;;;;;;;20.41;49.52;97130.28;5013201;28;20645;-31
2023/12/14 09:25:20;;;;;;;2.50;2.20;;;;;;;20.39;49.99;97133.59;5012586;28;20270;-28
2023/12/14 09:27:47;;;;;;;2.83;2.20;;;;;;;20.38;49.77;97135.28;5013665;28;20229;-28
2023/12/14 09:30:13;;;;;;;3.00;2.30;;;;;;;20.39;49.92;97136.13;5013358;28;20218;-28
2023/12/14 09:32:40;;;;;;;2.67;2.43;;;;;;;20.38;49.71;97145.50;5013590;28;20202;-29
2023/12/14 09:35:08;;;;;;;3.07;2.20;;;;;;;20.38;49.67;97137.84;5013727;28;20728;-28
2023/12/14 09:37:35;;;;;;;3.30;2.20;;;;;;;20.39;49.84;97142.13;5013593;28;20202;-28
2023/12/14 09:40:02;;;;;;;6.00;2.93;;;;;;;20.42;49.60;97142.19;5012738;28;20230;-30
2023/12/14 09:42:29;;;;;;;2.50;2.30;;;;;;;20.40;49.68;97143.84;5013588;28;20226;-28
2023/12/14 09:44:56;;;;;;;3.40;2.40;;;;;;;20.43;49.72;97140.53;5011721;28;20206;-28
2023/12/14 09:47:22;;;;;;;2.97;2.30;;;;;;;20.44;49.75;97144.78;4995458;28;20198;-28
2023/12/14 09:49:49;;;;;;;3.27;2.17;;;;;;;20.46;49.69;97151.66;5012116;28;20257;-28
2023/12/14 09:52:16;;;;;;;2.90;2.30;;;;;;;20.47;49.53;97150.88;4995828;28;20203;-29
2023/12/14 09:54:43;;;;;;;2.63;2.07;;;;;;;20.46;49.53;97150.81;5013262;28;20202;-27
2023/12/14 09:57:09;;;;;;;4.80;2.27;;;;;;;20.46;49.46;97151.66;5013021;28;20234;-29
2023/12/14 09:59:37;;;;;;;3.17;2.40;;;;;;;20.47;49.49;97147.44;5012791;28;20763;-27
2023/12/14 10:02:11;;;;;;;5.03;2.33;;;;;;;20.47;49.70;97155.09;5012420;28;20309;-29
2023/12/14 10:04:38;;;;;;;3.50;2.20;;;;;;;20.48;49.30;97165.34;5011308;28;20207;-28
2023/12/14 10:07:06;;;;;;;9.27;4.50;;;;;;;20.55;47.52;97172.38;5012420;28;20202;-29
2023/12/14 10:09:34;;;;;;;19.20;5.70;;;;;;;20.59;45.60;97174.19;5012257;28;20222;-33
2023/12/14 10:12:05;;;;;;;14.43;5.87;;;;;;;20.56;46.05;97173.22;5010190;28;20217;-27
2023/12/14 10:14:32;;;;;;;11.33;5.33;;;;;;;20.54;46.78;97180.84;5012379;28;20203;-34
2023/12/14 10:16:58;;;;;;;5.57;4.70;;;;;;;20.53;47.25;97181.66;5012617;28;20210;-28
2023/12/14 10:19:29;;;;;;;5.33;4.50;;;;;;;20.52;47.66;97187.56;5011133;28;20226;-28
2023/12/14 10:21:56;;;;;;;5.33;3.93;;;;;;;20.51;47.91;97190.97;5012544;28;20238;-30
2023/12/14 10:24:23;;;;;;;5.10;3.90;;;;;;;20.49;48.21;97187.47;5012463;28;20265;-28
2023/12/14 10:26:50;;;;;;;6.27;3.60;;;;;;;20.49;48.31;97194.31;5012080;28;20289;-30
2023/12/14 10:29:17;;;;;;;4.03;3.50;;;;;;;20.44;48.43;97195.84;5012283;28;20198;-27
2023/12/14 10:31:44;;;;;;;3.83;3.50;;;;;;;20.41;48.66;97194.09;5012080;28;20674;-27
2023/12/14 10:34:12;;;;;;;4.00;3.60;;;;;;;20.40;48.82;97194.03;5012126;28;20206;-29
2023/12/14 10:36:39;;;;;;;4.83;3.60;;;;;;;20.39;48.54;97200.81;5012614;28;20206;-28
2023/12/14 10:39:06;;;;;;;3.87;3.50;;;;;;;20.39;48.81;97205.94;5010835;28;20268;-32
2023/12/14 10:41:32;;;;;;;7.87;3.97;;;;;;;20.37;48.84;97199.91;5011388;28;20210;-27
2023/12/14 10:43:59;;;;;;;5.60;3.70;;;;;;;20.37;48.75;97205.00;4994275;28;20276;-28
2023/12/14 10:46:48;;;;;;;3.73;2.80;;;;;;;20.40;48.94;97212.75;4997632;28;20202;-28
2023/12/14 10:49:14;;;;;;;4.00;3.50;;;;;;;20.40;48.99;97211.91;5010876;28;20221;-27
2023/12/14 10:51:42;;;;;;;4.27;3.30;;;;;;;20.39;46.83;97210.16;5011064;28;20202;-30
2023/12/14 10:54:11;;;;;;;3.90;3.10;;;;;;;20.40;47.75;97206.81;5007768;28;20268;-31
2023/12/14 10:56:38;;;;;;;5.73;3.43;;;;;;;20.39;48.54;97211.03;5012473;28;20657;-28
2023/12/14 10:59:05;;;;;;;3.67;3.10;;;;;;;20.40;48.34;97209.34;5010432;28;20226;-27
2023/12/14 11:01:32;;;;;;;3.30;2.93;;;;;;;20.40;48.70;97211.91;4992477;28;20230;-29
2023/12/14 11:03:59;;;;;;;4.40;3.00;;;;;;;20.39;48.70;97211.03;5011986;28;20365;-29
2023/12/14 11:06:32;;;;;;;4.57;3.20;;;;;;;20.41;48.84;97218.72;5011945;28;20496;-28
2023/12/14 11:09:00;;;;;;;3.73;2.90;;;;;;;20.42;48.88;97230.66;5009575;28;20202;-28
2023/12/14 11:11:28;;;;;;;2.93;2.53;;;;;;;20.46;48.87;97224.84;5011804;28;20245;-27
2023/12/14 11:13:55;;;;;;;3.73;2.70;;;;;;;20.47;49.04;97230.00;5012590;28;20202;-29
2023/12/14 11:16:23;;;;;;;3.60;2.80;;;;;;;20.49;48.91;97233.44;5011759;28;20240;-29
2023/12/14 11:19:21;;;;;;;2.97;2.60;;;;;;;20.44;49.01;97232.47;5011960;28;20209;-28
2023/12/14 11:22:07;;;;;;;3.77;2.50;;;;;;;20.44;48.89;97229.03;5009686;28;20580;-30
2023/12/14 11:24:37;;;;;;;3.00;2.60;;;;;;;20.44;48.89;97239.25;5011314;28;20625;-30
2023/12/14 11:27:07;;;;;;;3.27;2.40;;;;;;;20.42;49.06;97236.66;5011203;28;20665;-28
2023/12/14 11:29:36;;;;;;;3.87;2.87;;;;;;;20.44;49.27;97252.00;5012238;28;20735;-27
2023/12/14 11:32:03;;;;;;;3.40;2.87;;;;;;;20.43;49.05;97248.56;5011919;28;20300;-29
2023/12/14 11:34:30;;;;;;;3.13;2.83;;;;;;;20.44;49.20;97255.44;5010974;28;20210;-28